Time;durP1;ratioP1;P1;durP2;ratioP2;P2;SDS_P1;SDS_P2;PMS_P1;PMS_P2;Temp;Humidity;BMP_temperature;BMP_pressure;BME280_temperature;BME280_humidity;BME280_pressure;Samples;Min_cycle;Max_cycle;Signal;HPM_P1;HPM_P2
2023/08/24 00:01:16;;;;;;;1.88;0.80;;;17.60;99.90;;;;;;5050231;28;20043;-55
2023/08/24 00:03:44;;;;;;;0.80;0.70;;;17.60;99.90;;;;;;5049538;28;20033;-51
2023/08/24 00:06:10;;;;;;;1.55;1.27;;;17.50;99.90;;;;;;5049924;28;20408;-52
2023/08/24 00:08:37;;;;;;;3.65;1.20;;;17.40;99.90;;;;;;5047715;28;20538;-53
2023/08/24 00:11:02;;;;;;;;;;;17.30;99.90;;;;;;5047513;28;20037;-53
2023/08/24 00:13:28;;;;;;;5.82;1.30;;;17.20;99.90;;;;;;5047178;28;19924;-52
2023/08/24 00:15:54;;;;;;;3.58;1.30;;;17.20;99.90;;;;;;5043523;28;20056;-57
2023/08/24 00:18:21;;;;;;;2.28;1.55;;;17.20;99.90;;;;;;5043773;28;20146;-51
2023/08/24 00:20:50;;;;;;;1.98;1.77;;;17.20;99.90;;;;;;5045977;28;20050;-51
2023/08/24 00:23:17;;;;;;;2.05;1.48;;;17.30;99.90;;;;;;5046967;28;20052;-52
2023/08/24 00:25:42;;;;;;;3.75;0.98;;;17.30;99.90;;;;;;5046720;28;20064;-55
2023/08/24 00:28:08;;;;;;;1.25;0.80;;;17.20;99.90;;;;;;5048662;28;20037;-54
2023/08/24 00:30:34;;;;;;;1.10;0.60;;;17.10;99.90;;;;;;5046899;28;20033;-51
2023/08/24 00:32:59;;;;;;;1.48;0.70;;;17.10;99.90;;;;;;5025619;28;20052;-52
2023/08/24 00:35:25;;;;;;;2.35;1.40;;;17.00;99.90;;;;;;5047795;28;20120;-51
2023/08/24 00:37:51;;;;;;;2.08;1.02;;;16.90;99.90;;;;;;5037389;28;20029;-55
2023/08/24 00:40:18;;;;;;;;;;;16.80;99.90;;;;;;5012643;28;20044;-55
2023/08/24 00:42:45;;;;;;;2.00;0.70;;;16.70;99.90;;;;;;5049797;28;19916;-52
2023/08/24 00:45:12;;;;;;;1.35;0.73;;;16.50;99.90;;;;;;5047435;28;20498;-52
2023/08/24 00:47:48;;;;;;;0.63;0.60;;;16.40;99.90;;;;;;5030106;28;20131;-51
2023/08/24 00:50:16;;;;;;;0.60;0.50;;;16.30;99.90;;;;;;5046474;28;20115;-51
2023/08/24 00:52:42;;;;;;;2.97;0.90;;;16.20;99.90;;;;;;5047776;28;20119;-55
2023/08/24 00:55:09;;;;;;;0.60;0.50;;;16.20;99.90;;;;;;5030721;28;20037;-54
2023/08/24 00:57:36;;;;;;;2.42;0.40;;;16.10;99.90;;;;;;5049460;28;20037;-53
2023/08/24 01:00:05;;;;;;;2.45;0.80;;;16.10;99.90;;;;;;5047837;28;20029;-55
2023/08/24 01:02:31;;;;;;;1.25;1.15;;;16.10;99.90;;;;;;5049276;28;20047;-55
2023/08/24 01:04:58;;;;;;;;;;;16.20;99.90;;;;;;5049091;28;20051;-53
2023/08/24 01:07:24;;;;;;;1.27;0.70;;;16.30;99.90;;;;;;5049097;28;20301;-51
2023/08/24 01:09:50;;;;;;;;;;;16.30;99.90;;;;;;5048428;28;20784;-51
2023/08/24 01:12:27;;;;;;;0.40;0.30;;;16.20;99.90;;;;;;5049251;28;19999;-53
2023/08/24 01:15:18;;;;;;;3.03;1.90;;;16.30;99.90;;;;;;5048696;28;20040;-53
2023/08/24 01:17:47;;;;;;;5.53;2.15;;;16.30;99.90;;;;;;5044275;28;20041;-51
2023/08/24 01:20:15;;;;;;;4.03;1.95;;;16.40;99.90;;;;;;5048402;28;20037;-51
2023/08/24 01:22:55;;;;;;;1.45;0.50;;;16.50;99.90;;;;;;5049301;28;20045;-51
2023/08/24 01:25:48;;;;;;;0.75;0.50;;;16.50;99.90;;;;;;5048095;28;20047;-51
2023/08/24 01:28:15;;;;;;;1.40;0.50;;;16.50;99.90;;;;;;5048807;28;20076;-51
2023/08/24 01:30:42;;;;;;;0.52;0.43;;;16.40;99.90;;;;;;5030080;28;20076;-52
2023/08/24 01:33:11;;;;;;;2.40;0.43;;;16.30;99.90;;;;;;5049161;28;20048;-55
2023/08/24 01:35:37;;;;;;;1.75;0.40;;;16.30;99.90;;;;;;5047817;28;20060;-52
2023/08/24 01:38:04;;;;;;;3.58;0.68;;;16.30;99.90;;;;;;5048775;28;20044;-51
2023/08/24 01:40:53;;;;;;;3.85;1.20;;;16.30;99.90;;;;;;5044749;28;20044;-52
2023/08/24 01:43:23;;;;;;;5.40;1.77;;;16.30;99.90;;;;;;5052640;28;20032;-54
2023/08/24 01:45:50;;;;;;;4.20;0.90;;;16.30;99.90;;;;;;5051738;28;20064;-54
2023/08/24 01:48:16;;;;;;;5.80;3.08;;;16.30;99.90;;;;;;5052588;28;20087;-53
2023/08/24 01:50:43;;;;;;;5.85;2.45;;;16.40;99.90;;;;;;5052295;28;20032;-52
2023/08/24 01:53:09;;;;;;;6.60;3.50;;;16.40;99.90;;;;;;5052791;28;20064;-53
2023/08/24 01:55:35;;;;;;;2.63;2.22;;;16.40;99.90;;;;;;5043612;28;20142;-54
2023/08/24 01:58:00;;;;;;;9.85;4.85;;;16.50;99.90;;;;;;5034649;28;20041;-52
2023/08/24 02:00:27;;;;;;;10.50;4.38;;;16.40;99.90;;;;;;5051772;28;20045;-53
2023/08/24 02:02:52;;;;;;;;;;;16.50;99.90;;;;;;5053135;28;20037;-51
2023/08/24 02:05:18;;;;;;;9.65;5.47;;;16.50;99.90;;;;;;5052191;28;20403;-51
2023/08/24 02:07:43;;;;;;;9.32;5.10;;;16.60;99.90;;;;;;5051857;28;20071;-55
2023/08/24 02:10:09;;;;;;;14.93;5.82;;;16.70;99.90;;;;;;5051483;28;20025;-52
2023/08/24 02:12:34;;;;;;;8.90;5.40;;;16.70;99.90;;;;;;5052398;28;20025;-53
2023/08/24 02:15:00;;;;;;;11.52;6.25;;;16.80;99.90;;;;;;5051299;28;20029;-55
2023/08/24 02:17:26;;;;;;;12.13;5.70;;;16.80;99.90;;;;;;5050933;28;20048;-54
2023/08/24 02:19:52;;;;;;;;;;;16.80;99.90;;;;;;5051358;28;20518;-52
2023/08/24 02:22:18;;;;;;;7.88;5.60;;;16.90;99.90;;;;;;5052187;28;19963;-53
2023/08/24 02:24:43;;;;;;;10.23;6.65;;;16.90;99.90;;;;;;5052131;28;20041;-51
2023/08/24 02:27:09;;;;;;;13.75;7.53;;;16.90;99.90;;;;;;5050998;28;20036;-55
2023/08/24 02:29:34;;;;;;;11.82;8.55;;;17.00;99.90;;;;;;5050844;28;20033;-54
2023/08/24 02:32:00;;;;;;;9.88;7.55;;;17.00;99.90;;;;;;5051927;28;20112;-53
2023/08/24 02:34:26;;;;;;;11.50;7.03;;;17.00;99.90;;;;;;5052407;28;20533;-51
2023/08/24 02:36:52;;;;;;;11.63;7.20;;;17.00;99.90;;;;;;5051532;28;20111;-52
2023/08/24 02:39:17;;;;;;;13.40;8.48;;;17.10;99.90;;;;;;5050952;28;20453;-53
2023/08/24 02:41:43;;;;;;;10.88;7.47;;;17.10;99.90;;;;;;5046242;28;20573;-52
2023/08/24 02:44:08;;;;;;;10.05;7.50;;;17.20;99.90;;;;;;5051306;28;20041;-52
2023/08/24 02:46:34;;;;;;;9.43;6.90;;;17.20;99.90;;;;;;5051083;28;20348;-51
2023/08/24 02:49:00;;;;;;;8.07;6.88;;;17.10;99.90;;;;;;5050953;28;20033;-54
2023/08/24 02:51:25;;;;;;;9.93;6.57;;;17.20;99.90;;;;;;5051162;28;20029;-51
2023/08/24 02:53:51;;;;;;;12.40;8.35;;;17.20;99.90;;;;;;5051823;28;20045;-54
2023/08/24 02:56:17;;;;;;;9.20;7.28;;;17.20;99.90;;;;;;5051290;28;20072;-55
2023/08/24 02:58:42;;;;;;;13.40;8.00;;;17.20;99.90;;;;;;5048051;28;20033;-54
2023/08/24 03:01:08;;;;;;;11.02;7.75;;;17.20;99.90;;;;;;5050600;28;20125;-52
2023/08/24 03:03:37;;;;;;;8.75;7.95;;;17.20;99.90;;;;;;5049671;28;20029;-51
2023/08/24 03:06:05;;;;;;;9.13;8.23;;;17.20;99.90;;;;;;5047835;28;20048;-53
2023/08/24 03:08:33;;;;;;;8.10;7.32;;;17.20;99.90;;;;;;5048127;28;20426;-54
2023/08/24 03:11:00;;;;;;;10.85;7.82;;;17.20;99.90;;;;;;5050667;28;20051;-51
2023/08/24 03:13:26;;;;;;;10.90;8.43;;;17.20;99.90;;;;;;5050932;28;20078;-51
2023/08/24 03:15:55;;;;;;;;;;;17.20;99.90;;;;;;5051778;28;20124;-52
2023/08/24 03:18:20;;;;;;;8.77;7.78;;;17.20;99.90;;;;;;5050782;28;19921;-53
2023/08/24 03:20:47;;;;;;;9.20;7.53;;;17.20;99.90;;;;;;5051273;28;20514;-53
2023/08/24 03:23:13;;;;;;;11.30;8.80;;;17.20;99.90;;;;;;5050530;28;20083;-53
2023/08/24 03:25:41;;;;;;;8.70;8.00;;;17.10;99.90;;;;;;5050289;28;20467;-51
2023/08/24 03:28:08;;;;;;;10.52;8.70;;;17.20;99.90;;;;;;5049844;28;20033;-53
2023/08/24 03:30:36;;;;;;;11.23;8.73;;;17.20;99.90;;;;;;5050581;28;20483;-51
2023/08/24 03:33:02;;;;;;;12.55;9.30;;;17.20;99.90;;;;;;5050370;28;20431;-53
2023/08/24 03:35:29;;;;;;;12.15;8.77;;;17.20;99.90;;;;;;5050587;28;20048;-52
2023/08/24 03:37:55;;;;;;;12.43;8.32;;;17.30;99.90;;;;;;5050300;28;20098;-51
2023/08/24 03:40:21;;;;;;;8.30;7.50;;;17.20;99.90;;;;;;5049805;28;20037;-54
2023/08/24 03:42:46;;;;;;;10.55;7.93;;;17.20;99.90;;;;;;5045258;28;20037;-51
2023/08/24 03:45:12;;;;;;;7.18;6.55;;;17.20;99.90;;;;;;5050298;28;20064;-54
2023/08/24 03:47:37;;;;;;;8.57;7.70;;;17.10;99.90;;;;;;5050189;28;20033;-53
2023/08/24 03:50:03;;;;;;;8.20;7.40;;;17.20;99.90;;;;;;5049621;28;20051;-54
2023/08/24 03:52:29;;;;;;;7.57;6.82;;;17.10;99.90;;;;;;5032757;28;20033;-52
2023/08/24 03:54:54;;;;;;;7.65;6.93;;;17.10;99.90;;;;;;5049779;28;20036;-51
2023/08/24 03:57:20;;;;;;;10.10;8.63;;;17.10;99.90;;;;;;5041916;28;20052;-53
2023/08/24 03:59:46;;;;;;;10.50;9.40;;;17.00;99.90;;;;;;5049540;28;20044;-55
2023/08/24 04:02:11;;;;;;;10.75;8.93;;;17.00;99.90;;;;;;5047853;28;20089;-51
2023/08/24 04:04:37;;;;;;;10.48;9.05;;;16.90;99.90;;;;;;5050243;28;20064;-52
2023/08/24 04:07:02;;;;;;;9.90;8.23;;;16.90;99.90;;;;;;5049728;28;20037;-53
2023/08/24 04:09:28;;;;;;;9.20;8.30;;;16.90;99.90;;;;;;5048991;28;20040;-52
2023/08/24 04:11:54;;;;;;;12.68;8.52;;;16.90;99.90;;;;;;5045336;28;20037;-54
2023/08/24 04:14:20;;;;;;;9.02;7.50;;;16.80;99.90;;;;;;5049936;28;20036;-53
2023/08/24 04:16:45;;;;;;;8.38;7.40;;;16.70;99.90;;;;;;5050119;28;20402;-53
2023/08/24 04:19:11;;;;;;;9.05;8.23;;;16.70;99.90;;;;;;5048510;28;20078;-52
2023/08/24 04:21:36;;;;;;;8.88;8.00;;;16.70;99.90;;;;;;5050158;28;20055;-53
2023/08/24 04:24:02;;;;;;;9.77;8.63;;;16.70;99.90;;;;;;5049316;28;20498;-54
2023/08/24 04:26:28;;;;;;;9.90;8.88;;;16.70;99.90;;;;;;5048930;28;20329;-53
2023/08/24 04:28:53;;;;;;;10.82;9.32;;;16.70;99.90;;;;;;5048533;28;20047;-54
2023/08/24 04:31:19;;;;;;;9.48;8.57;;;16.70;99.90;;;;;;5050023;28;20426;-53
2023/08/24 04:33:45;;;;;;;;;;;16.70;99.90;;;;;;5050119;28;20095;-51
2023/08/24 04:36:10;;;;;;;9.98;7.68;;;16.70;99.90;;;;;;5049280;28;19921;-54
2023/08/24 04:38:36;;;;;;;9.18;7.93;;;16.70;99.90;;;;;;5048016;28;20045;-53
2023/08/24 04:41:07;;;;;;;9.60;7.25;;;16.70;99.90;;;;;;5049736;28;20051;-51
2023/08/24 04:43:32;;;;;;;12.25;8.05;;;16.70;99.90;;;;;;5044068;28;20094;-54
2023/08/24 04:45:58;;;;;;;11.75;8.77;;;16.70;99.90;;;;;;5049678;28;20041;-52
2023/08/24 04:48:25;;;;;;;8.98;7.45;;;16.70;99.90;;;;;;5048478;28;20029;-53
2023/08/24 04:50:52;;;;;;;13.27;8.38;;;16.70;99.90;;;;;;5049514;28;20095;-54
2023/08/24 04:53:19;;;;;;;8.50;7.70;;;16.70;99.90;;;;;;5049327;28;20041;-52
2023/08/24 04:55:46;;;;;;;8.88;7.93;;;16.70;99.90;;;;;;5049580;28;20052;-55
2023/08/24 04:58:15;;;;;;;8.27;7.03;;;16.70;99.90;;;;;;5048571;28;20089;-53
2023/08/24 05:00:41;;;;;;;10.43;6.40;;;16.60;99.90;;;;;;5048897;28;20045;-52
2023/08/24 05:03:07;;;;;;;6.65;6.20;;;16.50;99.90;;;;;;5048979;28;20047;-53
2023/08/24 05:05:34;;;;;;;7.18;6.35;;;16.40;99.90;;;;;;5048979;28;20032;-54
2023/08/24 05:08:01;;;;;;;9.50;6.75;;;16.30;99.90;;;;;;5048483;28;20033;-56
2023/08/24 05:10:31;;;;;;;9.07;8.02;;;16.30;99.90;;;;;;5048221;28;20037;-54
2023/08/24 05:12:56;;;;;;;11.27;8.02;;;16.30;99.90;;;;;;5045078;28;20037;-53
2023/08/24 05:15:22;;;;;;;8.30;7.50;;;16.30;99.90;;;;;;5048230;28;20075;-54
2023/08/24 05:17:48;;;;;;;10.63;8.00;;;16.30;99.90;;;;;;5049108;28;20090;-51
2023/08/24 05:20:13;;;;;;;11.80;8.25;;;16.30;99.90;;;;;;5047748;28;20048;-53
2023/08/24 05:22:39;;;;;;;8.60;7.38;;;16.30;99.90;;;;;;5049221;28;20516;-51
2023/08/24 05:25:05;;;;;;;10.65;6.93;;;16.40;99.90;;;;;;5048463;28;20582;-54
2023/08/24 05:27:31;;;;;;;14.45;7.05;;;16.50;99.90;;;;;;5048833;28;20064;-55
2023/08/24 05:29:56;;;;;;;13.48;7.55;;;16.60;99.90;;;;;;5047814;28;20037;-51
2023/08/24 05:32:22;;;;;;;6.60;6.05;;;16.60;99.90;;;;;;5049003;28;20033;-52
2023/08/24 05:34:47;;;;;;;9.07;6.15;;;16.70;99.90;;;;;;5048634;28;20025;-56
2023/08/24 05:37:13;;;;;;;9.15;6.47;;;16.80;99.90;;;;;;5048534;28;20464;-53
2023/08/24 05:39:39;;;;;;;11.65;7.30;;;16.90;99.90;;;;;;5047811;28;20051;-51
2023/08/24 05:42:05;;;;;;;8.27;6.40;;;17.00;99.90;;;;;;5049127;28;20413;-51
2023/08/24 05:44:30;;;;;;;;;;;17.00;99.90;;;;;;5043728;28;20040;-51
2023/08/24 05:46:56;;;;;;;10.18;6.82;;;17.10;99.90;;;;;;5048530;28;19925;-52
2023/08/24 05:49:22;;;;;;;8.82;6.45;;;17.10;99.90;;;;;;5047833;28;20120;-55
2023/08/24 05:51:50;;;;;;;9.10;7.53;;;17.20;99.90;;;;;;5048386;28;20037;-52
2023/08/24 05:54:19;;;;;;;8.85;6.43;;;17.30;99.90;;;;;;5048804;28;20064;-54
2023/08/24 05:56:46;;;;;;;9.57;7.97;;;17.40;99.90;;;;;;5046624;28;20029;-53
2023/08/24 05:59:15;;;;;;;11.18;7.97;;;17.50;99.90;;;;;;5037690;28;20045;-53
2023/08/24 06:01:41;;;;;;;8.77;7.20;;;17.50;99.90;;;;;;5041162;28;20044;-57
2023/08/24 06:04:10;;;;;;;11.30;7.55;;;17.60;99.90;;;;;;5032745;28;20420;-52
2023/08/24 06:06:36;;;;;;;8.57;7.57;;;17.70;99.90;;;;;;5044970;28;20099;-52
2023/08/24 06:09:05;;;;;;;9.40;7.50;;;17.80;99.90;;;;;;5039699;28;20502;-52
2023/08/24 06:11:31;;;;;;;13.13;7.90;;;17.90;99.90;;;;;;5043917;28;20037;-52
2023/08/24 06:13:57;;;;;;;10.98;8.32;;;18.00;99.90;;;;;;5032616;28;20042;-54
2023/08/24 06:16:23;;;;;;;13.05;8.55;;;18.00;99.90;;;;;;5043407;28;20080;-55
2023/08/24 06:18:49;;;;;;;8.48;7.57;;;18.20;99.90;;;;;;5029121;28;20041;-55
2023/08/24 06:21:15;;;;;;;11.30;8.15;;;18.30;99.90;;;;;;5046235;28;20040;-52
2023/08/24 06:23:41;;;;;;;;;;;18.40;99.90;;;;;;5049278;28;20044;-52
2023/08/24 06:26:07;;;;;;;11.18;8.70;;;18.50;99.90;;;;;;5048824;28;19921;-55
2023/08/24 06:28:32;;;;;;;13.48;9.95;;;18.60;99.90;;;;;;5051561;28;20037;-54
2023/08/24 06:31:00;;;;;;;17.10;10.90;;;18.60;99.90;;;;;;5052187;28;20040;-54
2023/08/24 06:33:30;;;;;;;15.15;10.35;;;18.60;99.90;;;;;;5043733;28;20131;-52
2023/08/24 06:35:57;;;;;;;12.43;10.23;;;18.70;99.90;;;;;;5051748;28;20040;-53
2023/08/24 06:38:22;;;;;;;14.30;10.32;;;18.80;99.90;;;;;;5051773;28;20208;-54
2023/08/24 06:40:48;;;;;;;16.75;11.30;;;18.80;99.90;;;;;;5051959;28;20099;-51
2023/08/24 06:43:14;;;;;;;12.35;10.90;;;18.80;99.90;;;;;;5052221;28;20037;-52
2023/08/24 06:45:44;;;;;;;14.40;11.90;;;18.70;99.90;;;;;;5051433;28;20036;-53
2023/08/24 06:48:10;;;;;;;16.38;12.23;;;18.70;99.90;;;;;;5050617;28;20056;-53
2023/08/24 06:50:36;;;;;;;18.55;12.27;;;18.80;99.90;;;;;;5029905;28;20041;-53
2023/08/24 06:53:05;;;;;;;16.50;12.88;;;18.90;99.90;;;;;;5035543;28;20513;-56
2023/08/24 06:55:31;;;;;;;17.10;13.60;;;19.00;99.90;;;;;;5046696;28;20052;-54
2023/08/24 06:57:56;;;;;;;18.83;12.77;;;19.10;99.90;;;;;;5051478;28;20041;-54
2023/08/24 07:00:22;;;;;;;;;;;19.20;99.90;;;;;;5050450;28;20045;-52
2023/08/24 07:02:49;;;;;;;16.90;13.00;;;19.30;99.90;;;;;;5051672;28;20360;-53
2023/08/24 07:05:18;;;;;;;15.23;13.20;;;19.40;99.90;;;;;;5050425;28;20029;-51
2023/08/24 07:07:44;;;;;;;18.05;13.45;;;19.50;99.90;;;;;;5050842;28;20098;-52
2023/08/24 07:10:10;;;;;;;16.20;12.15;;;19.50;99.90;;;;;;5050881;28;20041;-52
2023/08/24 07:12:36;;;;;;;13.88;11.18;;;19.70;99.90;;;;;;5052117;28;20033;-51
2023/08/24 07:15:02;;;;;;;17.85;11.93;;;19.70;99.90;;;;;;5050314;28;20162;-51
2023/08/24 07:17:28;;;;;;;18.17;11.98;;;19.80;99.90;;;;;;5051200;28;20040;-52
2023/08/24 07:19:53;;;;;;;13.52;10.55;;;19.80;99.90;;;;;;5048366;28;20041;-53
2023/08/24 07:22:19;;;;;;;;;;;19.90;99.90;;;;;;5050462;28;20040;-55
2023/08/24 07:24:45;;;;;;;14.65;10.95;;;20.00;99.90;;;;;;5028585;28;19917;-54
2023/08/24 07:27:11;;;;;;;;;;;20.10;99.90;;;;;;5045559;28;20037;-53
2023/08/24 07:29:36;;;;;;;13.98;11.93;;;20.20;99.90;;;;;;5040740;28;19959;-57
2023/08/24 07:32:03;;;;;;;15.48;11.10;;;20.20;99.90;;;;;;5040774;28;20112;-51
2023/08/24 07:34:29;;;;;;;12.40;11.05;;;20.30;99.90;;;;;;5038512;28;20049;-52
2023/08/24 07:36:54;;;;;;;;;;;20.30;99.90;;;;;;5042804;28;20123;-52
2023/08/24 07:39:20;;;;;;;13.13;10.35;;;20.50;99.90;;;;;;5036809;28;20058;-52
2023/08/24 07:41:46;;;;;;;;;;;20.60;99.90;;;;;;5040146;28;20041;-54
2023/08/24 07:44:11;;;;;;;71.32;13.68;;;20.70;99.90;;;;;;5035032;28;19917;-52
2023/08/24 07:46:38;;;;;;;;;;;20.80;99.90;;;;;;5038184;28;20442;-53
2023/08/24 07:49:04;;;;;;;13.85;10.68;;;20.90;99.90;;;;;;5034540;28;19940;-54
2023/08/24 07:51:29;;;;;;;;;;;21.00;99.90;;;;;;5036153;28;20030;-52
2023/08/24 07:53:55;;;;;;;12.68;10.48;;;21.10;99.90;;;;;;5035054;28;19917;-51
2023/08/24 07:56:20;;;;;;;;;;;21.10;99.90;;;;;;5031981;28;20498;-51
2023/08/24 07:58:46;;;;;;;17.73;10.05;;;21.20;99.90;;;;;;5039623;28;19931;-52
2023/08/24 08:01:11;;;;;;;;;;;21.30;99.90;;;;;;5040807;28;20060;-50
2023/08/24 08:03:37;;;;;;;17.48;9.77;;;21.30;99.90;;;;;;5015099;28;19917;-53
2023/08/24 08:06:03;;;;;;;;;;;21.40;99.90;;;;;;5043014;28;20107;-51
2023/08/24 08:08:29;;;;;;;14.02;11.02;;;21.60;99.90;;;;;;5043217;28;19916;-51
2023/08/24 08:10:59;;;;;;;;;;;21.70;99.90;;;;;;5048631;28;20044;-52
2023/08/24 08:13:25;;;;;;;13.30;10.45;;;21.80;99.90;;;;;;5047775;28;20396;-51
2023/08/24 08:15:51;;;;;;;;;;;21.90;99.90;;;;;;5049267;28;20036;-51
2023/08/24 08:18:16;;;;;;;16.40;10.15;;;22.00;99.90;;;;;;5040318;28;19920;-54
2023/08/24 08:20:42;;;;;;;;;;;22.10;99.90;;;;;;5042660;28;20049;-51
2023/08/24 08:23:07;;;;;;;16.75;11.25;;;22.10;99.90;;;;;;5043494;28;19979;-52
2023/08/24 08:25:33;;;;;;;;;;;22.20;99.90;;;;;;5043587;28;20067;-52
2023/08/24 08:27:58;;;;;;;17.05;10.10;;;22.30;99.90;;;;;;5030082;28;19920;-54
2023/08/24 08:30:24;;;;;;;;;;;22.40;99.90;;;;;;5047730;28;20129;-55
2023/08/24 08:32:51;;;;;;;11.05;9.95;;;22.50;99.90;;;;;;5044016;28;19917;-51
2023/08/24 08:35:17;;;;;;;10.80;9.40;;;22.50;99.90;;;;;;5045653;28;20098;-55
2023/08/24 08:37:42;;;;;;;13.60;9.98;;;22.60;99.90;;;;;;5044278;28;20410;-52
2023/08/24 08:40:11;;;;;;;;;;;22.60;99.90;;;;;;5044319;28;20040;-52
2023/08/24 08:42:37;;;;;;;12.98;9.40;;;22.70;99.90;;;;;;5046576;28;19952;-52
2023/08/24 08:45:08;;;;;;;12.43;9.85;;;22.80;99.90;;;;;;5048285;28;20048;-56
2023/08/24 08:47:34;;;;;;;20.65;10.18;;;22.90;99.90;;;;;;5046082;28;20043;-53
2023/08/24 08:50:00;;;;;;;;;;;23.00;99.90;;;;;;5045293;28;20514;-53
2023/08/24 08:52:26;;;;;;;10.77;8.43;;;23.10;99.90;;;;;;5047006;28;20442;-55
2023/08/24 08:54:52;;;;;;;14.43;9.30;;;23.20;99.90;;;;;;5039858;28;20112;-52
2023/08/24 08:57:19;;;;;;;10.13;9.23;;;23.30;99.90;;;;;;5042683;28;20490;-49
2023/08/24 08:59:45;;;;;;;12.13;9.80;;;23.40;99.90;;;;;;5044591;28;20048;-54
2023/08/24 09:02:13;;;;;;;;;;;23.60;99.90;;;;;;5045245;28;20029;-54
2023/08/24 09:04:39;;;;;;;12.80;9.57;;;23.70;99.90;;;;;;5033626;28;19927;-55
2023/08/24 09:07:10;;;;;;;13.55;9.05;;;23.80;99.90;;;;;;5038291;28;20433;-52
2023/08/24 09:09:36;;;;;;;11.18;9.13;;;23.80;99.90;;;;;;5039585;28;20048;-53
2023/08/24 09:12:05;;;;;;;12.02;8.95;;;23.90;99.90;;;;;;5042940;28;20040;-55
2023/08/24 09:14:30;;;;;;;10.63;9.45;;;23.90;99.90;;;;;;5043171;28;20041;-52
2023/08/24 09:16:56;;;;;;;10.63;8.30;;;24.00;99.90;;;;;;5043102;28;20045;-52
2023/08/24 09:19:29;;;;;;;11.50;7.97;;;24.00;99.90;;;;;;5038105;28;20040;-52
2023/08/24 09:21:58;;;;;;;11.13;8.32;;;24.10;99.90;;;;;;5041274;28;20049;-55
2023/08/24 09:24:31;;;;;;;10.95;7.90;;;24.20;99.90;;;;;;5039322;28;20040;-56
2023/08/24 09:26:57;;;;;;;187.75;17.45;;;24.30;99.90;;;;;;5039856;28;20080;-53
2023/08/24 09:29:23;;;;;;;10.02;7.90;;;24.40;99.90;;;;;;5039140;28;20759;-53
2023/08/24 09:31:50;;;;;;;12.27;8.38;;;24.40;99.90;;;;;;5040262;28;20556;-51
2023/08/24 09:34:20;;;;;;;9.00;7.88;;;24.40;99.90;;;;;;5034754;28;20320;-54
2023/08/24 09:36:46;;;;;;;7.60;6.75;;;24.50;99.90;;;;;;5017342;28;20123;-52
2023/08/24 09:39:16;;;;;;;8.90;7.40;;;24.60;99.90;;;;;;5038406;28;20086;-54
2023/08/24 09:41:46;;;;;;;13.05;7.10;;;24.70;99.90;;;;;;5034008;28;20151;-55
2023/08/24 09:44:12;;;;;;;9.82;6.20;;;24.80;99.90;;;;;;5038338;28;20040;-55
2023/08/24 09:46:38;;;;;;;9.35;6.80;;;24.80;99.90;;;;;;5040839;28;20041;-51
2023/08/24 09:49:09;;;;;;;8.93;6.97;;;24.90;99.90;;;;;;5039437;28;20033;-53
2023/08/24 09:51:36;;;;;;;13.20;8.32;;;24.90;99.90;;;;;;5037859;28;20033;-52
2023/08/24 09:54:08;;;;;;;9.35;7.30;;;24.90;99.90;;;;;;5044640;28;20123;-55
2023/08/24 09:56:37;;;;;;;17.67;7.28;;;24.90;99.90;;;;;;5039689;28;20437;-52
2023/08/24 09:59:11;;;;;;;11.02;7.82;;;24.90;99.90;;;;;;5044526;28;20569;-52
2023/08/24 10:01:37;;;;;;;9.85;8.20;;;24.90;99.90;;;;;;5037303;28;20083;-53
2023/08/24 10:04:05;;;;;;;10.32;8.15;;;24.90;99.90;;;;;;5037706;28;20221;-53
2023/08/24 10:06:32;;;;;;;12.68;8.10;;;24.90;99.90;;;;;;5045878;28;20041;-52
2023/08/24 10:09:04;;;;;;;10.65;7.95;;;24.90;99.90;;;;;;5044391;28;20080;-51
2023/08/24 10:11:34;;;;;;;14.02;8.43;;;24.90;99.90;;;;;;5039377;28;20065;-51
2023/08/24 10:14:17;;;;;;;7.97;7.10;;;24.90;99.90;;;;;;5036600;28;20072;-52
2023/08/24 10:16:46;;;;;;;10.88;6.97;;;24.90;99.90;;;;;;5044116;28;20077;-52
2023/08/24 10:19:13;;;;;;;8.02;7.22;;;24.90;99.90;;;;;;5039169;28;20048;-52
2023/08/24 10:21:39;;;;;;;9.77;7.80;;;24.90;99.90;;;;;;5041180;28;20039;-51
2023/08/24 10:24:05;;;;;;;8.75;7.28;;;24.80;99.90;;;;;;5052504;28;20422;-51
2023/08/24 10:26:33;;;;;;;8.43;7.63;;;24.80;99.90;;;;;;5047870;28;20076;-55
2023/08/24 10:29:00;;;;;;;9.30;7.78;;;24.70;99.90;;;;;;5046304;28;20409;-55
2023/08/24 10:31:26;;;;;;;9.40;7.75;;;24.60;99.90;;;;;;5044898;28;20037;-50
2023/08/24 10:33:54;;;;;;;8.27;6.60;;;24.60;99.90;;;;;;5047360;28;20041;-51
2023/08/24 10:36:22;;;;;;;9.23;8.40;;;24.50;99.90;;;;;;5045901;28;20036;-51
2023/08/24 10:38:48;;;;;;;13.13;7.40;;;24.50;99.90;;;;;;5050315;28;20167;-51
2023/08/24 10:41:14;;;;;;;9.20;7.75;;;24.40;99.90;;;;;;5049583;28;20068;-52
2023/08/24 10:43:40;;;;;;;14.27;7.57;;;24.40;99.90;;;;;;5052011;28;20091;-51
2023/08/24 10:46:16;;;;;;;8.07;6.82;;;24.40;99.90;;;;;;5042954;28;20033;-52
2023/08/24 10:48:42;;;;;;;15.73;6.65;;;24.40;99.90;;;;;;5051262;28;20057;-53
2023/08/24 10:51:14;;;;;;;7.60;6.82;;;24.40;99.90;;;;;;5047763;28;20037;-50
2023/08/24 10:53:44;;;;;;;14.27;7.95;;;24.40;99.90;;;;;;5050182;28;20063;-51
2023/08/24 10:56:11;;;;;;;8.73;7.90;;;24.40;99.90;;;;;;5049334;28;20095;-52
2023/08/24 10:58:37;;;;;;;10.13;7.00;;;24.40;99.90;;;;;;5041965;28;20052;-51
2023/08/24 11:01:03;;;;;;;14.45;7.30;;;24.40;99.90;;;;;;5046647;28;20037;-54
2023/08/24 11:03:33;;;;;;;11.40;7.35;;;24.40;99.90;;;;;;5046452;28;20123;-55
2023/08/24 11:05:58;;;;;;;14.82;7.15;;;24.40;99.90;;;;;;5046050;28;20505;-52
2023/08/24 11:08:44;;;;;;;7.10;6.40;;;24.40;99.90;;;;;;5046083;28;20040;-52
2023/08/24 11:11:20;;;;;;;7.55;6.72;;;24.50;99.90;;;;;;5047648;28;20033;-53
2023/08/24 11:14:16;;;;;;;8.05;6.35;;;24.50;99.90;;;;;;5048283;28;20032;-52
2023/08/24 11:16:43;;;;;;;12.25;7.57;;;24.60;99.90;;;;;;5047772;28;20068;-52
2023/08/24 11:19:12;;;;;;;13.35;6.63;;;24.60;99.90;;;;;;5043142;28;20037;-55
2023/08/24 11:21:45;;;;;;;7.43;5.43;;;24.60;99.90;;;;;;5031837;28;20053;-53
2023/08/24 11:24:16;;;;;;;10.95;5.70;;;24.60;99.90;;;;;;5048066;28;20037;-51
2023/08/24 11:26:48;;;;;;;11.85;5.75;;;24.70;99.90;;;;;;5048008;28;20402;-53
2023/08/24 11:29:21;;;;;;;8.80;5.78;;;24.80;99.90;;;;;;5045604;28;20047;-52
2023/08/24 11:31:47;;;;;;;10.30;4.65;;;24.80;99.90;;;;;;5048119;28;20100;-54
2023/08/24 11:34:15;;;;;;;8.80;5.40;;;24.90;99.90;;;;;;5046795;28;20036;-54
2023/08/24 11:36:48;;;;;;;7.75;6.25;;;25.00;99.90;;;;;;5047963;28;20449;-53
2023/08/24 11:39:19;;;;;;;6.88;5.35;;;25.00;99.90;;;;;;5046737;28;20088;-52
2023/08/24 11:42:02;;;;;;;63.90;9.60;;;25.10;99.90;;;;;;5029356;28;20045;-54
2023/08/24 11:44:29;;;;;;;12.32;5.55;;;25.20;99.90;;;;;;5045011;28;20510;-54
2023/08/24 11:46:58;;;;;;;9.50;5.75;;;25.20;99.90;;;;;;5043264;28;20040;-51
2023/08/24 11:49:24;;;;;;;9.30;5.82;;;25.20;99.90;;;;;;5046339;28;20032;-54
2023/08/24 11:51:51;;;;;;;11.90;5.70;;;25.20;99.90;;;;;;5049419;28;20449;-52
2023/08/24 11:54:20;;;;;;;7.80;5.70;;;25.20;99.90;;;;;;5048244;28;20426;-52
2023/08/24 11:56:46;;;;;;;11.35;5.78;;;25.30;99.90;;;;;;5048414;28;20398;-51
2023/08/24 11:59:16;;;;;;;9.75;5.90;;;25.30;99.90;;;;;;5048864;28;20037;-52
2023/08/24 12:01:43;;;;;;;6.50;6.00;;;25.30;99.90;;;;;;5028690;28;20537;-55
2023/08/24 12:04:09;;;;;;;8.43;5.97;;;25.30;99.90;;;;;;5049708;28;20040;-55
2023/08/24 12:06:34;;;;;;;6.15;5.18;;;25.30;99.90;;;;;;5048685;28;20040;-54
2023/08/24 12:09:00;;;;;;;87.07;11.02;;;25.20;99.90;;;;;;5048637;28;20048;-52
2023/08/24 12:11:26;;;;;;;64.93;9.30;;;25.20;99.90;;;;;;5047116;28;20029;-52
2023/08/24 12:13:55;;;;;;;7.50;6.22;;;25.20;99.90;;;;;;5049326;28;20037;-52
2023/08/24 12:16:23;;;;;;;10.23;6.20;;;25.20;99.90;;;;;;5048934;28;20402;-52
2023/08/24 12:18:59;;;;;;;6.15;5.60;;;25.30;99.90;;;;;;5048349;28;20090;-52
2023/08/24 12:21:25;;;;;;;12.65;5.55;;;25.30;99.90;;;;;;5048882;28;20405;-56
2023/08/24 12:23:58;;;;;;;15.73;5.80;;;25.30;99.90;;;;;;5048145;28;20116;-52
2023/08/24 12:26:25;;;;;;;14.75;6.00;;;25.30;99.90;;;;;;5048721;28;20528;-54
2023/08/24 12:28:54;;;;;;;6.95;6.25;;;25.40;99.90;;;;;;5047910;28;20086;-51
2023/08/24 12:31:20;;;;;;;8.68;5.95;;;25.40;99.90;;;;;;5048853;28;20029;-51
2023/08/24 12:33:56;;;;;;;10.65;6.82;;;25.50;99.90;;;;;;5048423;28;20083;-52
2023/08/24 12:36:22;;;;;;;13.43;6.38;;;25.70;99.90;;;;;;5048590;28;20037;-55
2023/08/24 12:38:48;;;;;;;225.15;23.88;;;25.90;99.90;;;;;;5048012;28;20049;-53
2023/08/24 12:41:13;;;;;;;141.70;16.00;;;26.00;99.90;;;;;;5048857;28;20067;-52
2023/08/24 12:43:39;;;;;;;285.80;23.48;;;26.10;99.90;;;;;;5049086;28;20032;-52
2023/08/24 12:46:04;;;;;;;294.10;24.67;;;26.20;99.90;;;;;;5048591;28;20401;-55
2023/08/24 12:48:30;;;;;;;10.50;6.75;;;26.40;99.90;;;;;;5047607;28;20063;-52